createdAt,value
2023-01-17T00:00:35.050Z,8.80
2023-01-17T00:03:01.933Z,9.70
2023-01-17T00:05:47.158Z,9.57
2023-01-17T00:08:32.310Z,9.18
2023-01-17T00:10:59.236Z,9.02
2023-01-17T00:13:25.986Z,10.02
2023-01-17T00:15:53.132Z,10.00
2023-01-17T00:18:19.866Z,11.43
2023-01-17T00:21:05.371Z,12.10
2023-01-17T00:24:01.127Z,10.38
2023-01-17T00:26:28.187Z,11.30
2023-01-17T00:28:54.888Z,12.23
2023-01-17T00:31:22.161Z,11.52
2023-01-17T00:33:51.163Z,11.15
2023-01-17T00:36:17.864Z,12.48
2023-01-17T00:38:44.580Z,10.65
2023-01-17T00:41:14.512Z,12.10
2023-01-17T00:43:59.888Z,9.88
2023-01-17T00:46:45.255Z,10.63
2023-01-17T00:49:30.485Z,10.00
2023-01-17T00:52:16.018Z,9.95
2023-01-17T00:55:01.664Z,9.88
2023-01-17T00:57:48.501Z,10.13
2023-01-17T01:00:36.097Z,9.68
2023-01-17T01:03:30.572Z,8.93
2023-01-17T01:06:16.122Z,8.85
2023-01-17T01:09:01.569Z,9.90
2023-01-17T01:11:46.903Z,10.18
2023-01-17T01:14:32.054Z,9.88
2023-01-17T01:17:17.493Z,10.20
2023-01-17T01:20:02.726Z,10.45
2023-01-17T01:22:48.635Z,9.38
2023-01-17T01:25:33.909Z,9.98
2023-01-17T01:28:28.949Z,10.98
2023-01-17T01:31:14.351Z,9.63
2023-01-17T01:33:41.136Z,9.93
2023-01-17T01:36:09.236Z,9.63
2023-01-17T01:38:36.269Z,10.02
2023-01-17T01:41:03.244Z,10.10
2023-01-17T01:43:43.763Z,10.93
2023-01-17T01:46:15.017Z,10.43
2023-01-17T01:49:03.770Z,11.23
2023-01-17T01:51:43.059Z,10.15
2023-01-17T01:54:17.526Z,10.85
2023-01-17T01:56:45.636Z,10.52
2023-01-17T01:59:16.044Z,11.15
2023-01-17T02:01:43.026Z,10.15
2023-01-17T02:04:11.163Z,10.75
2023-01-17T02:06:46.241Z,11.63
2023-01-17T02:09:15.187Z,10.32
2023-01-17T02:11:42.510Z,10.77
2023-01-17T02:14:16.184Z,11.50
2023-01-17T02:17:09.590Z,10.40
2023-01-17T02:20:13.640Z,10.80
2023-01-17T02:25:16.367Z,11.45
2023-01-17T02:28:02.831Z,11.40
2023-01-17T02:30:42.504Z,11.88
2023-01-17T02:33:16.922Z,10.50
2023-01-17T02:35:49.563Z,11.52
2023-01-17T02:38:31.645Z,11.38
2023-01-17T02:41:05.593Z,11.85
2023-01-17T02:43:34.215Z,11.95
2023-01-17T02:46:01.240Z,11.55
2023-01-17T02:48:32.409Z,11.98
2023-01-17T02:51:38.911Z,11.38
2023-01-17T02:54:05.688Z,11.85
2023-01-17T02:56:49.068Z,12.55
2023-01-17T02:59:21.351Z,11.60
2023-01-17T03:02:06.384Z,11.30
2023-01-17T03:04:38.042Z,11.50
2023-01-17T03:07:11.543Z,12.50
2023-01-17T03:09:40.792Z,13.38
2023-01-17T03:12:09.356Z,12.57
2023-01-17T03:14:36.138Z,13.10
2023-01-17T03:17:02.942Z,13.57
2023-01-17T03:19:29.993Z,13.27
2023-01-17T03:21:56.996Z,13.35
2023-01-17T03:24:23.913Z,12.00
2023-01-17T03:26:50.623Z,13.43
2023-01-17T03:29:17.482Z,12.55
2023-01-17T03:31:44.215Z,14.20
2023-01-17T03:34:11.175Z,13.10
2023-01-17T03:36:37.817Z,12.13
2023-01-17T03:39:04.710Z,13.80
2023-01-17T03:41:31.420Z,13.48
2023-01-17T03:43:58.176Z,13.15
2023-01-17T03:46:26.034Z,13.75
2023-01-17T03:48:53.226Z,12.88
2023-01-17T03:51:20.512Z,14.32
2023-01-17T03:53:47.656Z,13.00
2023-01-17T03:56:14.870Z,14.68
2023-01-17T03:58:41.771Z,14.20
2023-01-17T04:01:08.777Z,14.70
2023-01-17T04:03:35.617Z,14.05
2023-01-17T04:06:02.434Z,14.23
2023-01-17T04:08:32.054Z,13.20
2023-01-17T04:10:58.844Z,13.60
2023-01-17T04:13:25.566Z,14.63
2023-01-17T04:15:52.796Z,15.50
2023-01-17T04:18:21.079Z,14.18
2023-01-17T04:20:48.053Z,15.18
2023-01-17T04:23:14.742Z,13.68
2023-01-17T04:25:41.605Z,15.25
2023-01-17T04:28:08.766Z,14.05
2023-01-17T04:30:35.600Z,15.65
2023-01-17T04:33:02.497Z,15.55
2023-01-17T04:35:31.651Z,14.98
2023-01-17T04:37:58.374Z,15.57
2023-01-17T04:40:25.292Z,15.98
2023-01-17T04:42:52.062Z,15.90
2023-01-17T04:45:19.056Z,15.15
2023-01-17T04:47:45.811Z,15.57
2023-01-17T04:50:13.053Z,16.20
2023-01-17T04:52:39.833Z,15.40
2023-01-17T04:55:07.978Z,15.73
2023-01-17T04:57:34.743Z,16.45
2023-01-17T05:00:01.543Z,17.40
2023-01-17T05:02:28.575Z,16.60
2023-01-17T05:04:55.282Z,19.73
2023-01-17T05:07:22.492Z,18.77
2023-01-17T05:09:50.344Z,20.10
2023-01-17T05:12:17.042Z,18.05
2023-01-17T05:14:43.744Z,18.58
2023-01-17T05:17:11.345Z,19.13
2023-01-17T05:19:38.221Z,18.35
2023-01-17T05:22:15.190Z,17.45
2023-01-17T05:24:44.062Z,18.95
2023-01-17T05:27:11.735Z,19.48
2023-01-17T05:29:38.718Z,16.83
2023-01-17T05:32:06.183Z,18.10
2023-01-17T05:34:33.019Z,17.88
2023-01-17T05:37:00.662Z,18.08
2023-01-17T05:39:27.409Z,16.98
2023-01-17T05:41:54.166Z,17.55
2023-01-17T05:44:20.903Z,17.08
2023-01-17T05:46:47.685Z,17.63
2023-01-17T05:49:14.499Z,16.10
2023-01-17T05:51:41.192Z,15.55
2023-01-17T05:54:08.148Z,15.90
2023-01-17T05:56:38.123Z,15.60
2023-01-17T05:59:04.922Z,15.70
2023-01-17T06:01:31.650Z,15.85
2023-01-17T06:03:58.341Z,16.67
2023-01-17T06:06:25.086Z,16.20
2023-01-17T06:08:51.780Z,16.55
2023-01-17T06:11:18.793Z,17.05
2023-01-17T06:13:48.794Z,17.17
2023-01-17T06:16:15.630Z,17.30
2023-01-17T06:18:42.392Z,17.67
2023-01-17T06:21:09.209Z,17.77
2023-01-17T06:23:36.026Z,18.60
2023-01-17T06:26:04.501Z,16.90
2023-01-17T06:28:32.605Z,18.55
2023-01-17T06:31:00.076Z,19.33
2023-01-17T06:33:26.941Z,18.73
2023-01-17T06:35:54.182Z,19.52
2023-01-17T06:38:21.401Z,17.73
2023-01-17T06:40:48.173Z,18.65
2023-01-17T06:43:15.214Z,19.35
2023-01-17T06:45:41.891Z,19.35
2023-01-17T06:48:13.106Z,18.60
2023-01-17T06:50:39.818Z,19.88
2023-01-17T06:53:07.533Z,19.70
2023-01-17T06:55:35.329Z,19.95
2023-01-17T06:58:03.195Z,18.67
2023-01-17T07:00:35.066Z,19.15
2023-01-17T07:03:03.111Z,17.30
2023-01-17T07:05:29.869Z,19.40
2023-01-17T07:07:57.513Z,17.48
2023-01-17T07:10:24.219Z,17.63
2023-01-17T07:12:51.539Z,22.40
2023-01-17T07:15:18.350Z,16.85
2023-01-17T07:17:45.068Z,16.20
2023-01-17T07:20:12.024Z,16.75
2023-01-17T07:22:38.880Z,16.85
2023-01-17T07:25:06.487Z,16.77
2023-01-17T07:27:33.690Z,17.63
2023-01-17T07:30:00.854Z,16.13
2023-01-17T07:32:27.938Z,18.17
2023-01-17T07:34:56.888Z,18.33
2023-01-17T07:37:23.749Z,16.33
2023-01-17T07:39:50.540Z,17.25
2023-01-17T07:42:17.315Z,18.25
2023-01-17T07:44:45.321Z,17.45
2023-01-17T07:47:12.488Z,16.45
2023-01-17T07:49:39.278Z,16.02
2023-01-17T07:52:12.576Z,13.98
2023-01-17T07:57:06.153Z,14.45
2023-01-17T07:59:34.546Z,14.73
2023-01-17T08:02:01.493Z,14.07
2023-01-17T08:04:34.676Z,14.48
2023-01-17T08:07:01.897Z,14.57
2023-01-17T08:09:28.745Z,14.38
2023-01-17T08:11:58.654Z,14.07
2023-01-17T08:14:25.633Z,13.75
2023-01-17T08:16:53.281Z,14.52
2023-01-17T08:19:20.461Z,14.05
2023-01-17T08:21:47.281Z,14.48
2023-01-17T08:24:14.653Z,15.63
2023-01-17T08:26:41.449Z,13.05
2023-01-17T08:29:08.992Z,14.57
2023-01-17T08:31:36.718Z,14.65
2023-01-17T08:34:03.578Z,15.48
2023-01-17T08:36:31.372Z,17.08
2023-01-17T08:38:58.941Z,14.20
2023-01-17T08:41:27.780Z,14.93
2023-01-17T08:43:54.624Z,14.65
2023-01-17T08:46:21.503Z,14.65
2023-01-17T08:48:48.260Z,14.27
2023-01-17T08:51:14.985Z,13.63
2023-01-17T08:53:42.032Z,13.20
2023-01-17T08:56:09.306Z,14.05
2023-01-17T08:58:36.100Z,13.68
2023-01-17T09:01:04.320Z,13.85
2023-01-17T09:03:32.552Z,14.10
2023-01-17T09:06:10.962Z,12.98
2023-01-17T09:08:38.243Z,12.02
2023-01-17T09:11:06.509Z,11.52
2023-01-17T09:13:33.634Z,11.88
2023-01-17T09:16:03.114Z,13.00
2023-01-17T09:18:30.965Z,12.02
2023-01-17T09:20:59.270Z,12.95
2023-01-17T09:23:28.233Z,12.30
2023-01-17T09:25:59.129Z,11.63
2023-01-17T09:28:26.808Z,10.85
2023-01-17T09:30:54.576Z,9.38
2023-01-17T09:33:24.475Z,10.82
2023-01-17T09:35:51.518Z,9.27
2023-01-17T09:38:18.401Z,8.73
2023-01-17T09:40:47.788Z,8.23
2023-01-17T09:43:44.437Z,9.60
2023-01-17T09:46:26.767Z,9.30
2023-01-17T09:49:19.772Z,8.55
2023-01-17T09:51:46.682Z,7.70
2023-01-17T09:54:23.894Z,6.15
2023-01-17T09:57:22.555Z,5.47
2023-01-17T10:00:04.297Z,4.65
2023-01-17T10:02:53.973Z,4.85
2023-01-17T10:05:30.884Z,3.95
2023-01-17T10:08:29.603Z,1.85
2023-01-17T10:10:57.855Z,1.75
2023-01-17T10:13:27.338Z,1.20
2023-01-17T10:16:22.877Z,1.60
2023-01-17T10:19:16.282Z,1.58
2023-01-17T10:22:10.895Z,1.50
2023-01-17T10:24:56.091Z,0.95
2023-01-17T10:27:30.493Z,1.20
2023-01-17T10:29:57.349Z,0.98
2023-01-17T10:32:29.504Z,1.00
2023-01-17T10:34:58.306Z,0.40
2023-01-17T10:37:56.790Z,0.60
2023-01-17T10:40:40.976Z,0.60
2023-01-17T10:43:24.707Z,0.30
2023-01-17T10:45:58.175Z,0.70
2023-01-17T10:48:41.597Z,0.73
2023-01-17T10:51:26.804Z,1.13
2023-01-17T10:54:14.892Z,2.15
2023-01-17T10:56:42.328Z,2.00
2023-01-17T10:59:23.806Z,1.80
2023-01-17T11:01:51.378Z,2.70
2023-01-17T11:04:32.326Z,2.40
2023-01-17T11:07:25.963Z,2.72
2023-01-17T11:09:58.283Z,7.72
2023-01-17T11:12:54.556Z,3.10
2023-01-17T11:15:25.994Z,3.10
2023-01-17T11:18:03.230Z,2.45
2023-01-17T11:20:39.993Z,2.30
2023-01-17T11:23:31.326Z,1.92
2023-01-17T11:26:03.609Z,2.50
2023-01-17T11:28:38.076Z,1.92
2023-01-17T11:31:07.990Z,1.80
2023-01-17T11:38:29.430Z,2.05
2023-01-17T11:41:20.323Z,1.88
2023-01-17T11:43:55.208Z,1.58
2023-01-17T11:46:23.911Z,1.40
2023-01-17T11:48:55.830Z,1.90
2023-01-17T11:51:41.614Z,1.90
2023-01-17T11:54:20.918Z,1.67
2023-01-17T11:56:47.808Z,1.60
2023-01-17T11:59:37.407Z,2.05
2023-01-17T12:02:34.295Z,1.58
2023-01-17T12:05:34.986Z,1.80
2023-01-17T12:08:25.144Z,1.58
2023-01-17T12:11:33.626Z,1.30
2023-01-17T12:14:11.177Z,1.05
2023-01-17T12:16:44.032Z,1.40
2023-01-17T12:19:34.027Z,1.20
2023-01-17T12:22:45.019Z,1.70
2023-01-17T12:25:47.803Z,1.00
2023-01-17T12:28:26.715Z,1.33
2023-01-17T12:31:27.145Z,1.20
2023-01-17T12:34:38.905Z,1.00
2023-01-17T12:37:29.617Z,1.20
2023-01-17T12:40:15.191Z,1.50
2023-01-17T12:42:49.508Z,1.33
2023-01-17T12:45:24.521Z,1.98
2023-01-17T12:47:59.916Z,1.90
2023-01-17T12:50:43.246Z,2.50
2023-01-17T12:53:39.511Z,2.33
2023-01-17T12:56:44.994Z,2.22
2023-01-17T12:59:37.985Z,2.58
2023-01-17T13:02:34.315Z,2.42
2023-01-17T13:05:23.789Z,2.22
2023-01-17T13:07:53.383Z,2.30
2023-01-17T13:10:30.984Z,2.72
2023-01-17T13:13:03.518Z,2.00
2023-01-17T13:15:37.586Z,3.30
2023-01-17T13:18:15.806Z,2.42
2023-01-17T13:20:48.410Z,1.90
2023-01-17T13:23:48.570Z,1.77
2023-01-17T13:26:41.543Z,2.08
2023-01-17T13:29:46.385Z,2.10
2023-01-17T13:32:40.082Z,2.13
2023-01-17T13:35:33.652Z,1.95
2023-01-17T13:38:29.282Z,2.20
2023-01-17T13:41:06.609Z,2.40
2023-01-17T13:43:39.811Z,2.00
2023-01-17T13:48:38.552Z,2.40
2023-01-17T13:51:09.411Z,2.47
2023-01-17T13:53:36.991Z,3.58
2023-01-17T13:56:12.359Z,2.63
2023-01-17T13:58:51.870Z,3.40
2023-01-17T14:01:24.749Z,2.83
2023-01-17T14:03:54.207Z,3.05
2023-01-17T14:06:54.627Z,3.70
2023-01-17T14:09:25.284Z,3.70
2023-01-17T14:11:52.149Z,3.90
2023-01-17T14:14:40.043Z,3.65
2023-01-17T14:17:29.222Z,3.30
2023-01-17T14:20:06.101Z,4.28
2023-01-17T14:22:58.747Z,4.80
2023-01-17T14:25:33.604Z,6.63
2023-01-17T14:28:18.339Z,7.40
2023-01-17T14:30:45.289Z,6.47
2023-01-17T14:33:20.420Z,5.07
2023-01-17T14:36:00.911Z,4.78
2023-01-17T14:38:33.053Z,4.30
2023-01-17T14:41:09.318Z,4.82
2023-01-17T14:43:41.004Z,4.28
2023-01-17T14:46:22.795Z,4.45
2023-01-17T14:48:50.225Z,3.97
2023-01-17T14:51:25.052Z,3.92
2023-01-17T14:54:03.232Z,3.70
2023-01-17T14:56:31.410Z,3.75
2023-01-17T14:59:17.246Z,4.10
2023-01-17T15:02:06.291Z,3.75
2023-01-17T15:04:39.359Z,4.80
2023-01-17T15:07:07.067Z,4.40
2023-01-17T15:09:37.591Z,4.53
2023-01-17T15:12:08.463Z,3.70
2023-01-17T15:14:39.129Z,4.35
2023-01-17T15:17:20.921Z,4.32
2023-01-17T15:20:01.782Z,4.90
2023-01-17T15:22:30.400Z,4.78
2023-01-17T15:24:58.602Z,5.03
2023-01-17T15:27:25.745Z,5.13
2023-01-17T15:29:54.061Z,5.15
2023-01-17T15:32:24.092Z,4.68
2023-01-17T15:34:52.727Z,4.00
2023-01-17T15:37:28.912Z,4.18
2023-01-17T15:40:25.414Z,4.15
2023-01-17T15:43:01.787Z,4.07
2023-01-17T15:45:33.282Z,4.78
2023-01-17T15:48:44.073Z,4.13
2023-01-17T15:51:56.679Z,4.50
2023-01-17T15:54:34.230Z,4.90
2023-01-17T15:57:18.120Z,4.55
2023-01-17T15:59:54.824Z,5.25
2023-01-17T16:02:33.233Z,4.63
2023-01-17T16:05:01.928Z,4.53
2023-01-17T16:07:48.394Z,5.05
2023-01-17T16:10:18.705Z,4.97
2023-01-17T16:12:50.093Z,4.65
2023-01-17T16:15:18.525Z,5.60
2023-01-17T16:17:48.669Z,6.20
2023-01-17T16:25:44.450Z,6.82
2023-01-17T16:28:11.224Z,6.82
2023-01-17T16:30:38.780Z,6.72
2023-01-17T16:33:05.743Z,7.40
2023-01-17T16:35:34.423Z,7.25
2023-01-17T16:38:06.901Z,7.20
2023-01-17T16:40:46.046Z,8.27
2023-01-17T16:43:14.549Z,8.52
2023-01-17T16:45:55.598Z,8.43
2023-01-17T16:48:22.807Z,8.25
2023-01-17T16:50:52.369Z,9.43
2023-01-17T16:53:24.933Z,8.88
2023-01-17T16:55:54.949Z,9.13
2023-01-17T16:58:21.645Z,9.88
2023-01-17T17:00:48.573Z,10.07
2023-01-17T17:03:17.879Z,9.35
2023-01-17T17:05:47.196Z,10.70
2023-01-17T17:08:15.492Z,10.27
2023-01-17T17:10:42.292Z,9.88
2023-01-17T17:13:09.044Z,10.52
2023-01-17T17:15:40.279Z,10.85
2023-01-17T17:18:07.030Z,11.10
2023-01-17T17:20:33.768Z,10.52
2023-01-17T17:23:00.823Z,11.18
2023-01-17T17:25:27.758Z,9.82
2023-01-17T17:27:54.755Z,10.52
2023-01-17T17:30:21.544Z,11.32
2023-01-17T17:32:49.410Z,10.25
2023-01-17T17:35:16.436Z,9.48
2023-01-17T17:37:43.174Z,10.25
2023-01-17T17:40:10.569Z,10.38
2023-01-17T17:42:37.329Z,10.65
2023-01-17T17:45:04.858Z,10.65
2023-01-17T17:47:31.692Z,10.50
2023-01-17T17:49:58.467Z,10.60
2023-01-17T17:52:28.688Z,11.02
2023-01-17T17:54:55.409Z,11.50
2023-01-17T17:57:22.184Z,11.60
2023-01-17T17:59:48.967Z,11.13
2023-01-17T18:02:16.446Z,11.20
2023-01-17T18:04:43.220Z,10.07
2023-01-17T18:07:09.937Z,11.18
2023-01-17T18:09:36.711Z,11.63
2023-01-17T18:12:03.667Z,10.73
2023-01-17T18:14:30.600Z,10.35
2023-01-17T18:16:57.397Z,11.73
2023-01-17T18:19:25.865Z,11.30
2023-01-17T18:21:53.351Z,10.60
2023-01-17T18:24:22.741Z,9.55
2023-01-17T18:26:52.654Z,9.95
2023-01-17T18:29:21.407Z,10.50
2023-01-17T18:31:55.152Z,10.38
2023-01-17T18:34:27.082Z,10.07
2023-01-17T18:36:54.268Z,10.98
2023-01-17T18:39:24.513Z,10.98
2023-01-17T18:41:51.625Z,11.15
2023-01-17T18:44:22.019Z,10.52
2023-01-17T18:46:50.386Z,10.23
2023-01-17T18:49:19.503Z,10.18
2023-01-17T18:51:50.448Z,9.70
2023-01-17T18:54:18.914Z,9.80
2023-01-17T18:56:45.746Z,9.65
2023-01-17T18:59:14.504Z,10.27
2023-01-17T19:01:44.893Z,9.90
2023-01-17T19:04:13.730Z,9.65
2023-01-17T19:06:43.466Z,10.35
2023-01-17T19:09:12.610Z,9.43
2023-01-17T19:11:39.636Z,9.48
2023-01-17T19:14:09.901Z,8.68
2023-01-17T19:16:39.368Z,9.43
2023-01-17T19:19:09.785Z,9.95
2023-01-17T19:21:37.194Z,9.07
2023-01-17T19:24:04.839Z,7.88
2023-01-17T19:26:31.860Z,8.43
2023-01-17T19:29:00.060Z,8.07
2023-01-17T19:31:29.585Z,9.52
2023-01-17T19:34:00.347Z,9.85
2023-01-17T19:36:29.553Z,8.38
2023-01-17T19:39:04.375Z,9.32
2023-01-17T19:41:33.630Z,9.32
2023-01-17T19:44:03.545Z,10.68
2023-01-17T19:46:30.695Z,10.15
2023-01-17T19:48:58.044Z,10.20
2023-01-17T19:51:26.732Z,9.20
2023-01-17T19:53:55.384Z,10.02
2023-01-17T19:56:25.274Z,9.95
2023-01-17T19:58:52.629Z,8.90
2023-01-17T20:01:24.170Z,9.70
2023-01-17T20:03:51.452Z,10.07
2023-01-17T20:06:24.006Z,8.55
2023-01-17T20:08:51.158Z,8.80
2023-01-17T20:11:20.526Z,8.05
2023-01-17T20:13:48.555Z,8.32
2023-01-17T20:16:17.184Z,7.85
2023-01-17T20:18:44.175Z,7.10
2023-01-17T20:21:14.429Z,6.18
2023-01-17T20:23:43.098Z,6.00
2023-01-17T20:26:13.810Z,6.22
2023-01-17T20:28:42.027Z,6.20
2023-01-17T20:31:14.983Z,6.55
2023-01-17T20:33:43.181Z,6.68
2023-01-17T20:36:12.697Z,6.82
2023-01-17T20:38:46.013Z,6.75
2023-01-17T20:46:15.691Z,6.60
2023-01-17T20:48:47.884Z,6.97
2023-01-17T20:51:15.302Z,6.10
2023-01-17T20:53:43.536Z,6.75
2023-01-17T20:56:15.005Z,6.40
2023-01-17T20:58:42.613Z,6.15
2023-01-17T21:01:11.913Z,5.88
2023-01-17T21:03:39.748Z,5.18
2023-01-17T21:06:09.219Z,5.03
2023-01-17T21:08:38.607Z,5.50
2023-01-17T21:11:07.181Z,5.10
2023-01-17T21:13:36.355Z,5.25
2023-01-17T21:16:03.821Z,5.18
2023-01-17T21:18:33.791Z,4.88
2023-01-17T21:21:09.340Z,5.20
2023-01-17T21:23:38.054Z,5.22
2023-01-17T21:26:09.456Z,5.00
2023-01-17T21:28:38.787Z,4.80
2023-01-17T21:31:23.007Z,4.25
2023-01-17T21:33:58.157Z,5.20
2023-01-17T21:36:31.032Z,4.57
2023-01-17T21:38:59.764Z,4.68
2023-01-17T21:41:28.781Z,4.28
2023-01-17T21:44:01.241Z,4.43
2023-01-17T21:46:29.196Z,5.00
2023-01-17T21:48:58.696Z,4.70
2023-01-17T21:51:45.728Z,4.43
2023-01-17T21:54:18.995Z,4.25
2023-01-17T21:59:33.930Z,4.00
2023-01-17T22:02:22.489Z,4.30
2023-01-17T22:05:24.662Z,4.07
2023-01-17T22:08:12.033Z,3.05
2023-01-17T22:10:45.983Z,3.42
2023-01-17T22:15:40.127Z,2.70
2023-01-17T22:18:11.248Z,2.20
2023-01-17T22:20:41.957Z,2.78
2023-01-17T22:23:10.110Z,3.13
2023-01-17T22:25:37.395Z,4.07
2023-01-17T22:28:04.868Z,3.83
2023-01-17T22:30:31.686Z,3.28
2023-01-17T22:33:00.073Z,3.40
2023-01-17T22:35:26.979Z,3.25
2023-01-17T22:37:54.572Z,3.40
2023-01-17T22:40:32.091Z,2.63
2023-01-17T22:42:59.243Z,2.30
2023-01-17T22:45:27.380Z,2.65
2023-01-17T22:47:54.148Z,2.25
2023-01-17T22:50:23.030Z,2.33
2023-01-17T22:52:49.814Z,2.60
2023-01-17T22:55:16.579Z,2.97
2023-01-17T22:57:46.595Z,3.25
2023-01-17T23:00:14.728Z,3.63
2023-01-17T23:02:58.466Z,4.28
2023-01-17T23:05:25.440Z,2.83
2023-01-17T23:07:52.217Z,3.22
2023-01-17T23:10:39.031Z,3.22
2023-01-17T23:13:10.359Z,3.13
2023-01-17T23:15:58.830Z,3.20
2023-01-17T23:18:44.413Z,3.72
2023-01-17T23:21:13.962Z,3.55
2023-01-17T23:23:40.662Z,3.65
2023-01-17T23:26:07.375Z,3.53
2023-01-17T23:28:34.118Z,2.78
2023-01-17T23:31:05.016Z,3.17
2023-01-17T23:33:32.134Z,3.15
2023-01-17T23:36:01.624Z,9.48
2023-01-17T23:38:33.795Z,7.22
2023-01-17T23:41:25.143Z,10.53
2023-01-17T23:43:53.999Z,9.98
2023-01-17T23:46:27.874Z,8.38
2023-01-17T23:48:55.290Z,8.20
2023-01-17T23:51:22.094Z,8.43
2023-01-17T23:53:48.810Z,6.65
2023-01-17T23:56:23.163Z,5.28
2023-01-17T23:58:50.370Z,4.88
